Time;durP1;ratioP1;P1;durP2;ratioP2;P2;SDS_P1;SDS_P2;PMS_P1;PMS_P2;Temp;Humidity;BMP_temperature;BMP_pressure;BME280_temperature;BME280_humidity;BME280_pressure;Samples;Min_cycle;Max_cycle;Signal;HPM_P1;HPM_P2
2021/01/14 00:01:05;;;;;;;0.90;0.90;;;2.50;99.90;;;;;;5053158;28;20580;-79
2021/01/14 00:03:33;;;;;;;2.35;1.20;;;2.40;99.90;;;;;;5053634;28;20269;-79
2021/01/14 00:06:01;;;;;;;0.75;0.75;;;2.40;99.90;;;;;;5053032;28;20195;-79
2021/01/14 00:08:29;;;;;;;1.75;1.50;;;2.30;99.90;;;;;;5052781;28;20246;-79
2021/01/14 00:10:57;;;;;;;1.75;0.95;;;2.40;99.90;;;;;;5053482;28;20202;-79
2021/01/14 00:13:25;;;;;;;2.10;1.08;;;2.30;99.90;;;;;;5053196;28;20790;-79
2021/01/14 00:15:53;;;;;;;1.67;1.58;;;2.20;99.90;;;;;;5053177;28;20681;-79
2021/01/14 00:18:21;;;;;;;1.38;1.23;;;2.20;99.90;;;;;;5052052;28;20192;-79
2021/01/14 00:20:48;;;;;;;1.73;1.63;;;2.20;99.90;;;;;;5053971;28;20204;-79
2021/01/14 00:23:15;;;;;;;2.38;1.02;;;2.20;99.90;;;;;;5052867;28;20207;-79
2021/01/14 00:25:42;;;;;;;1.42;1.33;;;2.20;99.90;;;;;;5053535;28;20215;-79
2021/01/14 00:45:00;;;;;;;1.17;1.17;;;2.40;99.90;;;;;;5050270;28;20195;-79
2021/01/14 00:47:27;;;;;;;1.25;1.23;;;2.20;99.90;;;;;;5051692;28;20226;-79
2021/01/14 00:49:53;;;;;;;2.45;1.38;;;2.30;99.90;;;;;;5052166;28;20200;-78
2021/01/14 00:52:19;;;;;;;2.42;1.60;;;2.40;99.90;;;;;;5053462;28;20238;-79
2021/01/14 00:54:46;;;;;;;2.08;1.83;;;2.40;99.90;;;;;;5051832;28;20224;-79
2021/01/14 00:57:12;;;;;;;2.25;2.00;;;2.40;99.90;;;;;;5052431;28;20211;-79
2021/01/14 00:59:39;;;;;;;1.75;1.42;;;2.30;99.90;;;;;;5052977;28;20208;-79
2021/01/14 01:02:06;;;;;;;1.73;1.60;;;2.30;99.90;;;;;;5052670;28;21866;-79
2021/01/14 01:04:33;;;;;;;1.75;1.65;;;2.30;99.90;;;;;;5052909;28;20196;-79
2021/01/14 01:20:40;;;;;;;2.15;2.05;;;2.70;99.90;;;;;;5053162;28;20561;-80
2021/01/14 01:23:07;;;;;;;2.17;1.92;;;2.80;99.90;;;;;;5051054;28;20207;-80
2021/01/14 01:25:33;;;;;;;3.00;2.80;;;2.80;99.90;;;;;;5052541;28;20203;-79
2021/01/14 01:27:59;;;;;;;2.88;2.42;;;2.90;99.90;;;;;;5051741;28;20207;-79
2021/01/14 01:30:26;;;;;;;3.33;3.03;;;2.90;99.90;;;;;;5050849;28;20566;-79
2021/01/14 01:32:52;;;;;;;4.00;3.60;;;2.80;99.90;;;;;;5051415;28;20661;-79
2021/01/14 01:35:19;;;;;;;3.85;3.30;;;2.80;99.90;;;;;;5052317;28;20250;-80
2021/01/14 01:37:46;;;;;;;3.72;3.40;;;2.70;99.90;;;;;;5051403;28;20212;-79
2021/01/14 01:40:14;;;;;;;4.28;3.88;;;2.80;99.90;;;;;;5051904;28;20236;-79
2021/01/14 01:42:41;;;;;;;4.10;3.70;;;2.70;99.90;;;;;;5051359;28;20211;-79
2021/01/14 01:45:08;;;;;;;4.88;4.00;;;2.70;99.90;;;;;;5051751;28;20204;-80
2021/01/14 01:47:36;;;;;;;3.63;3.28;;;2.80;99.90;;;;;;5051102;28;20769;-79
2021/01/14 01:50:05;;;;;;;4.65;4.20;;;2.80;99.90;;;;;;5064619;28;20199;-79
2021/01/14 01:52:33;;;;;;;4.60;4.10;;;2.70;99.90;;;;;;5071602;28;20203;-79
2021/01/14 01:55:02;;;;;;;5.40;4.40;;;2.70;99.90;;;;;;5055562;28;20588;-79
2021/01/14 01:57:28;;;;;;;4.45;4.05;;;2.80;99.90;;;;;;5049515;28;20258;-79
2021/01/14 01:59:55;;;;;;;3.88;3.58;;;2.80;99.90;;;;;;5050874;28;20210;-79
2021/01/14 02:02:23;;;;;;;3.33;3.05;;;2.80;99.90;;;;;;5050404;28;20212;-80
2021/01/14 02:04:51;;;;;;;4.60;4.20;;;2.60;99.90;;;;;;5051161;28;20195;-79
2021/01/14 02:07:32;;;;;;;2.92;2.72;;;2.50;99.90;;;;;;5048817;28;20216;-79
2021/01/14 02:10:09;;;;;;;3.60;3.13;;;2.50;99.90;;;;;;5046895;28;20577;-79
2021/01/14 02:12:50;;;;;;;4.45;3.40;;;2.60;99.90;;;;;;5043005;28;20214;-79
2021/01/14 02:15:18;;;;;;;3.22;2.92;;;2.50;99.90;;;;;;5050863;28;20288;-79
2021/01/14 02:17:47;;;;;;;3.53;3.28;;;2.40;99.90;;;;;;5049240;28;20196;-79
2021/01/14 02:20:16;;;;;;;3.65;3.35;;;2.50;99.90;;;;;;5050938;28;20286;-79
2021/01/14 02:22:50;;;;;;;3.10;2.90;;;2.50;99.90;;;;;;5053328;28;20207;-79
2021/01/14 02:25:26;;;;;;;3.08;2.80;;;2.40;99.90;;;;;;5055240;28;20203;-79
2021/01/14 02:34:41;;;;;;;3.78;2.70;;;2.50;99.90;;;;;;5042954;28;20269;-79
2021/01/14 02:37:09;;;;;;;3.08;2.88;;;2.30;99.90;;;;;;5054569;28;20223;-79
2021/01/14 02:39:38;;;;;;;4.10;3.67;;;2.40;99.90;;;;;;5054660;28;20232;-79
2021/01/14 02:42:05;;;;;;;3.47;2.92;;;2.20;99.90;;;;;;5055151;28;20218;-79
2021/01/14 02:44:32;;;;;;;3.33;3.03;;;2.30;99.90;;;;;;5055415;28;20564;-79
2021/01/14 02:47:01;;;;;;;2.88;2.67;;;2.40;99.90;;;;;;5054389;28;20203;-79
2021/01/14 02:49:31;;;;;;;2.80;2.60;;;2.40;99.90;;;;;;5054144;28;20681;-79
2021/01/14 02:52:03;;;;;;;3.72;3.33;;;2.30;99.90;;;;;;5055246;28;20570;-79
2021/01/14 02:54:31;;;;;;;4.90;3.47;;;2.30;99.90;;;;;;5056440;28;20208;-79
2021/01/14 02:56:59;;;;;;;3.95;3.50;;;2.30;99.90;;;;;;5053432;28;20567;-79
2021/01/14 02:59:28;;;;;;;3.58;3.28;;;2.30;99.90;;;;;;5054470;28;20204;-79
2021/01/14 03:01:55;;;;;;;5.10;3.28;;;2.30;99.90;;;;;;5054805;28;20570;-79
2021/01/14 03:04:24;;;;;;;3.72;3.00;;;2.20;99.90;;;;;;5054896;28;20561;-79
2021/01/14 03:06:51;;;;;;;4.68;3.30;;;2.40;99.90;;;;;;5054274;28;20208;-79
2021/01/14 03:09:23;;;;;;;2.92;2.72;;;2.30;99.90;;;;;;5054366;28;20708;-79
2021/01/14 03:11:53;;;;;;;3.92;3.50;;;2.20;99.90;;;;;;5054315;28;20196;-79
2021/01/14 03:14:20;;;;;;;4.20;3.80;;;2.30;99.90;;;;;;5054148;28;20661;-79
2021/01/14 03:16:47;;;;;;;3.22;2.92;;;2.20;99.90;;;;;;5054457;28;20207;-79
2021/01/14 03:19:14;;;;;;;4.65;3.70;;;2.30;99.90;;;;;;5053866;28;20196;-79
2021/01/14 03:21:40;;;;;;;4.88;3.95;;;2.30;99.90;;;;;;5054489;28;20207;-79
2021/01/14 03:24:08;;;;;;;4.45;3.63;;;2.20;99.90;;;;;;5054404;28;20215;-79
2021/01/14 03:26:37;;;;;;;5.03;3.50;;;2.10;99.90;;;;;;5053901;28;20547;-79
2021/01/14 03:29:04;;;;;;;3.65;3.17;;;2.20;99.90;;;;;;5053220;28;20246;-79
2021/01/14 03:31:30;;;;;;;4.13;3.10;;;2.10;99.90;;;;;;5052387;28;20200;-79
2021/01/14 03:33:56;;;;;;;5.00;4.20;;;2.20;99.90;;;;;;5052820;28;20188;-78
2021/01/14 03:36:23;;;;;;;3.80;2.78;;;2.20;99.90;;;;;;5053229;28;20286;-78
2021/01/14 03:38:49;;;;;;;4.28;3.08;;;2.10;99.90;;;;;;5053119;28;20276;-79
2021/01/14 03:41:17;;;;;;;4.03;3.25;;;2.10;99.90;;;;;;5053347;28;20203;-79
2021/01/14 03:43:45;;;;;;;3.60;3.30;;;2.00;99.90;;;;;;5053975;28;20261;-79
2021/01/14 03:46:14;;;;;;;3.58;3.20;;;2.00;99.90;;;;;;5053064;28;20207;-79
2021/01/14 03:48:42;;;;;;;7.00;3.50;;;2.10;99.90;;;;;;5052623;28;20747;-79
2021/01/14 03:51:15;;;;;;;3.38;3.10;;;1.90;99.90;;;;;;5054043;28;20203;-79
2021/01/14 03:53:42;;;;;;;5.55;3.92;;;1.90;99.90;;;;;;5054125;28;20265;-79
2021/01/14 03:56:08;;;;;;;4.25;3.50;;;1.90;99.90;;;;;;5065822;28;20218;-79
2021/01/14 03:58:35;;;;;;;8.43;4.13;;;1.90;99.90;;;;;;5053361;28;20211;-79
2021/01/14 04:01:02;;;;;;;4.20;3.20;;;1.80;99.90;;;;;;5054265;28;20676;-79
2021/01/14 04:03:29;;;;;;;4.88;4.45;;;1.70;99.90;;;;;;5054149;28;20200;-79
2021/01/14 04:05:55;;;;;;;3.60;3.30;;;1.80;99.90;;;;;;5053940;28;20669;-79
2021/01/14 04:08:21;;;;;;;4.45;4.05;;;1.80;99.90;;;;;;5053372;28;20246;-79
2021/01/14 04:10:48;;;;;;;3.67;3.38;;;1.70;99.90;;;;;;5055485;28;20204;-79
2021/01/14 04:13:14;;;;;;;4.60;4.20;;;1.70;99.90;;;;;;5054991;28;20210;-80
2021/01/14 04:15:41;;;;;;;6.72;4.68;;;1.60;99.90;;;;;;5054233;28;20219;-79
2021/01/14 04:18:08;;;;;;;5.75;4.85;;;1.70;99.90;;;;;;5053816;28;20243;-78
2021/01/14 04:20:36;;;;;;;8.45;4.63;;;1.70;99.90;;;;;;5054467;28;20216;-79
2021/01/14 04:23:03;;;;;;;4.43;4.03;;;1.70;99.90;;;;;;5055185;28;20208;-79
2021/01/14 04:25:30;;;;;;;4.60;4.20;;;1.80;99.90;;;;;;5054257;28;20196;-79
2021/01/14 04:27:59;;;;;;;5.07;4.15;;;1.80;99.90;;;;;;5054332;28;20216;-79
2021/01/14 04:30:26;;;;;;;5.57;4.15;;;2.00;99.90;;;;;;5053726;28;20716;-79
2021/01/14 04:32:58;;;;;;;6.15;4.00;;;1.80;99.90;;;;;;5054990;28;20283;-79
2021/01/14 04:35:26;;;;;;;4.53;4.13;;;1.80;99.90;;;;;;5052540;28;20239;-79
2021/01/14 04:37:53;;;;;;;6.28;4.15;;;1.80;99.90;;;;;;5053546;28;20196;-79
2021/01/14 04:40:19;;;;;;;5.95;4.65;;;1.80;99.90;;;;;;5054924;28;20704;-79
2021/01/14 04:42:51;;;;;;;5.65;5.00;;;1.80;99.90;;;;;;5055328;28;20199;-79
2021/01/14 04:45:22;;;;;;;5.07;4.20;;;1.80;99.90;;;;;;5054883;28;20211;-79
2021/01/14 04:47:50;;;;;;;6.55;4.97;;;1.80;99.90;;;;;;5053699;28;20234;-80
2021/01/14 04:50:18;;;;;;;5.43;4.88;;;1.80;99.90;;;;;;5054735;28;20265;-80
2021/01/14 04:52:48;;;;;;;6.20;4.82;;;1.80;99.90;;;;;;5054528;28;20215;-79
2021/01/14 04:55:14;;;;;;;3.80;3.50;;;1.80;99.90;;;;;;5054500;28;20211;-80
2021/01/14 04:57:45;;;;;;;5.18;3.72;;;1.70;99.90;;;;;;5054082;28;20210;-79
2021/01/14 05:00:13;;;;;;;4.70;4.20;;;1.80;99.90;;;;;;5055311;28;20215;-80
2021/01/14 05:02:53;;;;;;;6.05;4.72;;;1.80;99.90;;;;;;5054446;28;20204;-79
2021/01/14 05:05:23;;;;;;;7.40;4.75;;;1.90;99.90;;;;;;5054836;28;20192;-80
2021/01/14 05:08:03;;;;;;;6.28;5.13;;;2.00;99.90;;;;;;5054380;28;20298;-80
2021/01/14 05:10:33;;;;;;;5.22;4.45;;;2.00;99.90;;;;;;5040416;28;20559;-80
2021/01/14 05:13:00;;;;;;;6.05;4.65;;;2.00;99.90;;;;;;5055548;28;20235;-79
2021/01/14 05:15:27;;;;;;;5.35;4.00;;;2.00;99.90;;;;;;5054786;28;20219;-80
2021/01/14 05:17:56;;;;;;;5.32;4.82;;;1.80;99.90;;;;;;5054679;28;20206;-80
2021/01/14 05:20:23;;;;;;;7.45;4.68;;;1.80;99.90;;;;;;5055600;28;20567;-80
2021/01/14 05:22:57;;;;;;;6.57;4.03;;;1.80;99.90;;;;;;5055000;28;20661;-80
2021/01/14 05:25:23;;;;;;;6.70;5.47;;;1.90;99.90;;;;;;5047740;28;20208;-79
2021/01/14 05:27:50;;;;;;;5.90;4.55;;;1.80;99.90;;;;;;5054471;28;20214;-80
2021/01/14 05:30:17;;;;;;;6.38;3.75;;;1.80;99.90;;;;;;5054236;28;20207;-79
2021/01/14 05:32:45;;;;;;;8.13;5.18;;;1.70;99.90;;;;;;5054891;28;20208;-79
2021/01/14 05:35:14;;;;;;;5.50;4.97;;;1.60;99.90;;;;;;5054592;28;20219;-79
2021/01/14 05:37:42;;;;;;;5.28;4.82;;;1.60;99.90;;;;;;5053922;28;20200;-79
2021/01/14 05:40:11;;;;;;;7.97;5.40;;;1.60;99.90;;;;;;5054539;28;20206;-79
2021/01/14 05:42:38;;;;;;;7.93;5.53;;;1.70;99.90;;;;;;5054910;28;20239;-80
2021/01/14 05:45:06;;;;;;;6.63;5.95;;;1.80;99.90;;;;;;5054487;28;20200;-79
2021/01/14 05:47:33;;;;;;;5.72;5.18;;;1.70;99.90;;;;;;5053862;28;20212;-80
2021/01/14 05:50:01;;;;;;;5.93;5.15;;;1.70;99.90;;;;;;5055353;28;20208;-80
2021/01/14 05:52:29;;;;;;;6.18;5.40;;;1.70;99.90;;;;;;5052224;28;20219;-80
2021/01/14 05:55:07;;;;;;;7.75;5.80;;;1.80;99.90;;;;;;5053241;28;20246;-80
2021/01/14 05:57:38;;;;;;;6.47;4.72;;;1.80;99.90;;;;;;5052949;28;20203;-79
2021/01/14 06:00:09;;;;;;;7.47;5.30;;;1.90;99.90;;;;;;5054705;28;20204;-80
2021/01/14 06:02:36;;;;;;;6.15;5.40;;;1.90;99.90;;;;;;5054971;28;20334;-79
2021/01/14 06:05:03;;;;;;;6.10;5.00;;;1.90;99.90;;;;;;5055441;28;20216;-80
2021/01/14 06:07:40;;;;;;;11.43;6.88;;;1.90;99.90;;;;;;5052696;28;20204;-80
2021/01/14 06:10:07;;;;;;;6.45;5.85;;;2.00;99.90;;;;;;5054151;28;20552;-80
2021/01/14 06:12:46;;;;;;;5.90;5.30;;;2.00;99.90;;;;;;5054756;28;20204;-80
2021/01/14 06:15:16;;;;;;;10.80;6.22;;;1.90;99.90;;;;;;5048934;28;20243;-80
2021/01/14 06:17:44;;;;;;;8.30;6.90;;;1.90;99.90;;;;;;5051843;28;20741;-79
2021/01/14 06:20:11;;;;;;;7.30;5.68;;;1.80;99.90;;;;;;5054159;28;20206;-79
2021/01/14 06:22:37;;;;;;;7.55;5.78;;;1.80;99.90;;;;;;5054628;28;20257;-80
2021/01/14 06:25:05;;;;;;;8.65;6.28;;;1.80;99.90;;;;;;5061015;28;20751;-80
2021/01/14 06:27:33;;;;;;;9.63;7.25;;;1.80;99.90;;;;;;5047380;28;20215;-80
2021/01/14 06:30:06;;;;;;;8.65;7.03;;;1.70;99.90;;;;;;5031303;28;20205;-80
2021/01/14 06:32:33;;;;;;;8.05;6.43;;;1.70;99.90;;;;;;5047293;28;20554;-80
2021/01/14 06:35:00;;;;;;;7.90;6.57;;;1.70;99.90;;;;;;5036929;28;20207;-80
2021/01/14 06:37:28;;;;;;;8.18;6.35;;;1.60;99.90;;;;;;5051755;28;20200;-80
2021/01/14 06:39:56;;;;;;;7.32;5.85;;;1.60;99.90;;;;;;5051977;28;20286;-79
2021/01/14 06:42:26;;;;;;;11.30;7.50;;;1.60;99.90;;;;;;5052539;28;20208;-80
2021/01/14 06:44:55;;;;;;;9.63;6.70;;;1.80;99.90;;;;;;5032958;28;20235;-80
2021/01/14 06:47:31;;;;;;;8.27;7.43;;;1.90;99.90;;;;;;5044188;28;20219;-80
2021/01/14 06:50:23;;;;;;;7.07;6.30;;;1.80;99.90;;;;;;5031769;28;20204;-80
2021/01/14 06:52:55;;;;;;;10.98;7.10;;;1.80;99.90;;;;;;5049081;28;20215;-80
2021/01/14 06:55:23;;;;;;;12.45;8.13;;;1.80;99.90;;;;;;5031512;28;20231;-80
2021/01/14 06:58:04;;;;;;;8.18;7.35;;;1.70;99.90;;;;;;5037845;28;20292;-80
2021/01/14 07:00:31;;;;;;;8.35;6.57;;;1.60;99.90;;;;;;5051176;28;20261;-80
2021/01/14 07:03:19;;;;;;;8.00;7.15;;;1.60;99.90;;;;;;5050830;28;20216;-80
2021/01/14 07:05:59;;;;;;;13.02;7.20;;;1.80;99.90;;;;;;5051349;28;20203;-80
2021/01/14 07:08:31;;;;;;;8.80;6.80;;;1.60;99.90;;;;;;5039204;28;20203;-79
2021/01/14 07:11:02;;;;;;;8.48;6.47;;;1.50;99.90;;;;;;5054895;28;20199;-80
2021/01/14 07:13:31;;;;;;;7.97;7.22;;;1.60;99.90;;;;;;5054317;28;20261;-80
2021/01/14 07:16:00;;;;;;;9.10;7.90;;;1.70;99.90;;;;;;5055066;28;20219;-80
2021/01/14 07:18:31;;;;;;;9.40;6.75;;;1.70;99.90;;;;;;5054039;28;20208;-80
2021/01/14 07:21:08;;;;;;;10.25;8.00;;;1.70;99.90;;;;;;5055136;28;20199;-80
2021/01/14 07:23:39;;;;;;;11.32;8.43;;;1.80;99.90;;;;;;5055400;28;20710;-80
2021/01/14 07:26:07;;;;;;;10.60;8.45;;;1.80;99.90;;;;;;5054554;28;20203;-80
2021/01/14 07:28:36;;;;;;;10.93;7.07;;;1.80;99.90;;;;;;5053089;28;20246;-81
2021/01/14 07:31:20;;;;;;;10.25;7.53;;;2.20;99.90;;;;;;5051413;28;20228;-81
2021/01/14 07:33:48;;;;;;;7.72;6.90;;;1.80;99.90;;;;;;5050260;28;20208;-81
2021/01/14 07:36:20;;;;;;;9.95;8.05;;;1.80;99.90;;;;;;5050848;28;20223;-81
2021/01/14 07:38:48;;;;;;;11.93;7.40;;;1.80;99.90;;;;;;5053755;28;20204;-81
2021/01/14 07:41:14;;;;;;;9.50;7.35;;;1.80;99.90;;;;;;5052574;28;20567;-81
2021/01/14 07:43:45;;;;;;;7.57;6.63;;;1.80;99.90;;;;;;5052296;28;20595;-81
2021/01/14 07:46:22;;;;;;;8.35;6.55;;;1.90;99.90;;;;;;5052780;28;20204;-81
2021/01/14 07:48:51;;;;;;;11.48;7.93;;;1.80;99.90;;;;;;5044497;28;20231;-81
2021/01/14 07:51:18;;;;;;;12.57;7.35;;;1.90;99.90;;;;;;5053366;28;20239;-81
2021/01/14 07:54:05;;;;;;;9.00;6.68;;;1.90;99.90;;;;;;5052815;28;20211;-81
2021/01/14 07:56:43;;;;;;;8.90;7.20;;;2.10;99.90;;;;;;5052192;28;20228;-81
2021/01/14 07:59:11;;;;;;;8.25;6.28;;;2.30;99.90;;;;;;5051645;28;20203;-81
2021/01/14 08:02:02;;;;;;;6.93;5.97;;;2.10;99.90;;;;;;5054436;28;20612;-81
2021/01/14 08:04:29;;;;;;;8.75;6.90;;;2.20;99.90;;;;;;5053307;28;20204;-81
2021/01/14 08:06:56;;;;;;;8.10;6.97;;;2.30;99.90;;;;;;5052484;28;20688;-80
2021/01/14 08:09:23;;;;;;;11.07;6.53;;;1.90;99.90;;;;;;5052351;28;20211;-81
2021/01/14 08:11:59;;;;;;;7.18;6.40;;;1.80;99.90;;;;;;5054109;28;20200;-81
2021/01/14 08:14:38;;;;;;;6.10;5.50;;;1.80;99.90;;;;;;5055618;28;20192;-81
2021/01/14 08:17:20;;;;;;;8.10;5.72;;;1.90;99.90;;;;;;5055818;28;20215;-81
2021/01/14 08:19:47;;;;;;;6.88;6.20;;;1.80;99.90;;;;;;5051940;28;20200;-81
2021/01/14 08:22:14;;;;;;;7.00;6.18;;;1.80;99.90;;;;;;5053425;28;20224;-81
2021/01/14 08:24:52;;;;;;;7.70;6.45;;;1.70;99.90;;;;;;5053185;28;20199;-81
2021/01/14 08:27:29;;;;;;;13.98;7.07;;;1.80;99.90;;;;;;5050613;28;20549;-81
2021/01/14 08:30:06;;;;;;;7.68;6.55;;;1.80;99.90;;;;;;5052228;28;20648;-81
2021/01/14 08:32:38;;;;;;;9.93;6.43;;;1.70;99.90;;;;;;5050779;28;20257;-82
2021/01/14 08:35:08;;;;;;;8.65;5.88;;;1.90;99.90;;;;;;5052337;28;20200;-81
2021/01/14 08:37:37;;;;;;;7.93;6.82;;;1.80;99.90;;;;;;5051343;28;20226;-81
2021/01/14 08:40:09;;;;;;;7.40;6.32;;;1.90;99.90;;;;;;5051235;28;20208;-81
2021/01/14 08:42:37;;;;;;;11.50;6.70;;;1.80;99.90;;;;;;5051363;28;20207;-81
2021/01/14 08:45:14;;;;;;;8.60;6.65;;;1.60;99.90;;;;;;5051586;28;20258;-80
2021/01/14 08:47:59;;;;;;;8.70;6.90;;;1.60;99.90;;;;;;5050958;28;20230;-81
2021/01/14 08:50:51;;;;;;;8.18;6.97;;;1.60;99.90;;;;;;5051252;28;20717;-81
2021/01/14 08:53:30;;;;;;;8.25;6.65;;;1.80;99.90;;;;;;5047499;28;20210;-81
2021/01/14 08:55:57;;;;;;;8.90;6.80;;;1.90;99.90;;;;;;5050515;28;20235;-81
2021/01/14 08:58:35;;;;;;;11.30;7.10;;;2.10;99.90;;;;;;5050886;28;20188;-81
2021/01/14 09:01:01;;;;;;;8.00;7.20;;;2.30;99.90;;;;;;5051332;28;20215;-81
2021/01/14 09:03:28;;;;;;;8.77;6.85;;;2.30;99.90;;;;;;5050821;28;20207;-81
2021/01/14 09:05:56;;;;;;;13.45;8.40;;;2.30;99.90;;;;;;5051351;28;20661;-81
2021/01/14 09:08:23;;;;;;;7.60;6.68;;;2.50;99.90;;;;;;5050451;28;20743;-81
2021/01/14 09:10:51;;;;;;;10.32;6.85;;;2.60;99.90;;;;;;5051475;28;20282;-81
2021/01/14 09:13:19;;;;;;;9.20;7.78;;;2.40;99.90;;;;;;5050544;28;20266;-82
2021/01/14 09:15:46;;;;;;;11.30;8.15;;;2.30;99.90;;;;;;5051039;28;20224;-81
2021/01/14 09:18:13;;;;;;;12.65;7.88;;;2.30;99.90;;;;;;5049792;28;20219;-81
2021/01/14 09:20:40;;;;;;;8.65;7.10;;;2.10;99.90;;;;;;5051850;28;20199;-81
2021/01/14 09:23:21;;;;;;;8.45;6.88;;;2.10;99.90;;;;;;5049600;28;20196;-81
2021/01/14 09:25:50;;;;;;;8.10;6.65;;;2.10;99.90;;;;;;5050395;28;20204;-80
2021/01/14 09:28:21;;;;;;;10.05;7.10;;;1.90;99.90;;;;;;5050928;28;20199;-81
2021/01/14 09:30:57;;;;;;;8.48;6.68;;;2.00;99.90;;;;;;5050635;28;20680;-81
2021/01/14 09:33:29;;;;;;;7.75;6.32;;;2.20;99.90;;;;;;5050354;28;20195;-81
2021/01/14 09:36:10;;;;;;;9.73;6.68;;;2.20;99.90;;;;;;5050602;28;20228;-81
2021/01/14 09:38:43;;;;;;;7.90;7.15;;;2.20;99.90;;;;;;5050476;28;20219;-82
2021/01/14 09:41:10;;;;;;;9.65;6.53;;;2.10;99.90;;;;;;5050458;28;20704;-81
2021/01/14 09:43:43;;;;;;;7.20;5.65;;;1.90;99.90;;;;;;5050389;28;20204;-81
2021/01/14 09:46:15;;;;;;;6.32;5.32;;;1.90;99.90;;;;;;5051246;28;20188;-81
2021/01/14 09:48:42;;;;;;;6.53;4.97;;;1.80;99.90;;;;;;5049939;28;20658;-81
2021/01/14 09:51:10;;;;;;;5.30;4.80;;;1.80;99.90;;;;;;5050321;28;20204;-81
2021/01/14 09:53:45;;;;;;;6.88;5.13;;;1.70;99.90;;;;;;5050231;28;20212;-81
2021/01/14 09:56:19;;;;;;;6.50;5.30;;;1.70;99.90;;;;;;5050301;28;20710;-81
2021/01/14 09:58:48;;;;;;;6.28;5.63;;;1.80;99.90;;;;;;5050440;28;20204;-81
2021/01/14 10:01:18;;;;;;;6.15;4.85;;;1.90;99.90;;;;;;5050101;28;20208;-81
2021/01/14 10:03:50;;;;;;;13.68;8.07;;;1.90;99.90;;;;;;5050319;28;20208;-81
2021/01/14 10:06:17;;;;;;;8.20;6.28;;;1.80;99.90;;;;;;5050237;28;20254;-82
2021/01/14 10:08:48;;;;;;;30.60;25.70;;;1.70;99.90;;;;;;5047860;28;20621;-81
2021/01/14 10:11:17;;;;;;;49.33;37.03;;;1.70;99.90;;;;;;5049532;28;20261;-81
2021/01/14 10:13:51;;;;;;;18.50;11.95;;;1.70;99.90;;;;;;5049891;28;20230;-81
2021/01/14 10:16:20;;;;;;;7.68;6.72;;;1.80;99.90;;;;;;5049687;28;20229;-80
2021/01/14 10:18:46;;;;;;;10.35;7.72;;;2.00;99.90;;;;;;5050038;28;20283;-81
2021/01/14 10:21:14;;;;;;;4.70;4.18;;;2.20;99.90;;;;;;5050205;28;20267;-81
2021/01/14 10:23:41;;;;;;;25.25;22.60;;;2.20;99.90;;;;;;5048212;28;20583;-81
2021/01/14 10:26:08;;;;;;;10.60;9.45;;;2.20;99.90;;;;;;5062030;28;20286;-81
2021/01/14 10:28:44;;;;;;;7.72;6.93;;;2.20;99.90;;;;;;5060133;28;20204;-81
2021/01/14 10:31:10;;;;;;;5.25;4.75;;;2.40;99.90;;;;;;5050131;28;20291;-81
2021/01/14 10:33:37;;;;;;;6.97;5.20;;;2.40;99.90;;;;;;5049599;28;20254;-81
2021/01/14 10:36:04;;;;;;;8.57;5.93;;;2.30;99.90;;;;;;5055576;28;20673;-81
2021/01/14 10:38:30;;;;;;;5.68;5.18;;;2.20;99.90;;;;;;5049232;28;20204;-81
2021/01/14 10:40:58;;;;;;;11.00;8.20;;;2.10;99.90;;;;;;5049789;28;20575;-81
2021/01/14 10:43:33;;;;;;;8.38;5.20;;;2.10;99.90;;;;;;5068628;28;20207;-82
2021/01/14 10:46:01;;;;;;;3.95;3.65;;;2.30;99.90;;;;;;5061977;28;20222;-81
2021/01/14 10:48:37;;;;;;;6.38;5.00;;;2.50;99.90;;;;;;5069993;28;20213;-81
2021/01/14 10:51:04;;;;;;;6.95;4.15;;;2.20;99.90;;;;;;5060148;28;20215;-81
2021/01/14 10:53:31;;;;;;;5.90;4.95;;;2.00;99.90;;;;;;5066423;28;20251;-81
2021/01/14 10:56:03;;;;;;;4.20;3.72;;;2.00;99.90;;;;;;5056731;28;20576;-82
2021/01/14 10:58:29;;;;;;;6.75;3.80;;;2.10;99.90;;;;;;5060847;28;20250;-81
2021/01/14 11:00:57;;;;;;;4.43;4.03;;;2.20;99.90;;;;;;5067900;28;20207;-81
2021/01/14 11:03:26;;;;;;;5.70;4.85;;;2.30;99.90;;;;;;5062443;28;20204;-81
2021/01/14 11:05:54;;;;;;;8.20;5.03;;;2.60;99.90;;;;;;5053633;28;20228;-81
2021/01/14 11:08:24;;;;;;;7.05;4.38;;;2.70;99.90;;;;;;5053632;28;20212;-82
2021/01/14 11:11:05;;;;;;;5.30;4.50;;;2.70;99.90;;;;;;5053790;28;20200;-81
2021/01/14 11:13:58;;;;;;;6.97;5.75;;;2.70;99.90;;;;;;5053107;28;20661;-82
2021/01/14 11:16:29;;;;;;;5.05;4.65;;;2.70;99.90;;;;;;5053213;28;20726;-81
2021/01/14 11:18:56;;;;;;;6.90;5.35;;;2.80;99.90;;;;;;5053110;28;20223;-81
2021/01/14 11:21:28;;;;;;;8.13;5.68;;;2.80;99.90;;;;;;5053236;28;20207;-81
2021/01/14 11:23:55;;;;;;;6.03;5.43;;;2.50;99.90;;;;;;5052980;28;20192;-82
2021/01/14 11:26:21;;;;;;;9.38;6.40;;;2.60;99.90;;;;;;5053041;28;20200;-82
2021/01/14 11:28:49;;;;;;;10.57;6.35;;;2.40;99.90;;;;;;5052582;28;20207;-82
2021/01/14 11:31:16;;;;;;;8.18;6.95;;;2.40;99.90;;;;;;5053569;28;20211;-81
2021/01/14 11:33:44;;;;;;;8.00;6.03;;;2.50;99.90;;;;;;5052546;28;20228;-81
2021/01/14 11:36:12;;;;;;;9.38;6.72;;;2.80;99.90;;;;;;5053511;28;20227;-81
2021/01/14 11:38:39;;;;;;;7.68;5.72;;;2.90;99.90;;;;;;5054074;28;20204;-81
2021/01/14 11:41:05;;;;;;;8.35;6.40;;;2.80;99.90;;;;;;5053566;28;20216;-82
2021/01/14 11:43:33;;;;;;;8.43;6.30;;;2.90;99.90;;;;;;5052981;28;20241;-81
2021/01/14 11:45:59;;;;;;;9.73;5.88;;;2.90;99.90;;;;;;5052923;28;20200;-81
2021/01/14 11:48:26;;;;;;;9.13;6.45;;;2.80;99.90;;;;;;5052489;28;20206;-81
2021/01/14 11:50:53;;;;;;;9.55;6.05;;;2.80;99.90;;;;;;5052130;28;20204;-81
2021/01/14 11:53:20;;;;;;;8.57;5.93;;;3.00;99.90;;;;;;5052449;28;20203;-81
2021/01/14 11:55:47;;;;;;;12.05;6.80;;;3.10;99.90;;;;;;5051120;28;20215;-82
2021/01/14 11:58:13;;;;;;;8.48;6.80;;;3.10;99.60;;;;;;5052743;28;20195;-81
2021/01/14 12:00:41;;;;;;;9.00;6.50;;;3.10;99.50;;;;;;5052712;28;20273;-81
2021/01/14 12:03:08;;;;;;;7.38;6.65;;;3.10;99.50;;;;;;5051805;28;20204;-81
2021/01/14 12:05:35;;;;;;;10.27;6.65;;;2.80;98.90;;;;;;5052333;28;20203;-81
2021/01/14 12:08:02;;;;;;;7.13;6.45;;;2.80;98.90;;;;;;5051523;28;20218;-82
2021/01/14 12:10:29;;;;;;;10.07;7.47;;;2.70;99.20;;;;;;5052534;28;20211;-81
2021/01/14 12:12:56;;;;;;;7.63;6.30;;;2.60;99.20;;;;;;5048077;28;20220;-81
2021/01/14 12:15:23;;;;;;;9.60;6.50;;;2.70;99.30;;;;;;5052081;28;20211;-81
2021/01/14 12:17:50;;;;;;;7.30;6.50;;;3.00;99.40;;;;;;5052368;28;20637;-81
2021/01/14 12:20:16;;;;;;;9.18;7.55;;;3.00;98.60;;;;;;5052493;28;20204;-81
2021/01/14 12:22:43;;;;;;;11.75;7.57;;;3.00;98.80;;;;;;5051776;28;20753;-81
2021/01/14 12:25:12;;;;;;;9.20;6.45;;;3.10;99.00;;;;;;5052295;28;20669;-82
2021/01/14 12:27:39;;;;;;;7.93;7.03;;;3.00;97.70;;;;;;5051716;28;20719;-81
2021/01/14 12:30:08;;;;;;;13.30;5.35;;;3.00;97.90;;;;;;5051941;28;20200;-81
2021/01/14 12:32:35;;;;;;;6.57;5.95;;;2.80;97.40;;;;;;5051773;28;20250;-81
2021/01/14 12:35:02;;;;;;;6.68;5.07;;;3.10;98.00;;;;;;5050908;28;20200;-81
2021/01/14 12:37:32;;;;;;;10.75;6.75;;;3.40;97.60;;;;;;5051123;28;20976;-81
2021/01/14 12:39:58;;;;;;;5.47;4.97;;;3.40;96.50;;;;;;5052055;28;20207;-82
2021/01/14 12:42:26;;;;;;;7.10;5.13;;;3.40;96.20;;;;;;5051300;28;20200;-81
2021/01/14 12:44:53;;;;;;;6.20;5.60;;;3.30;96.10;;;;;;5051353;28;20639;-81
2021/01/14 12:47:19;;;;;;;7.35;5.82;;;3.40;96.50;;;;;;5051187;28;20234;-81
2021/01/14 12:49:45;;;;;;;7.05;5.55;;;3.40;96.40;;;;;;5051197;28;20208;-82
2021/01/14 12:52:12;;;;;;;7.40;5.50;;;3.20;96.20;;;;;;5051237;28;20225;-81
2021/01/14 12:54:38;;;;;;;7.28;4.90;;;2.90;96.60;;;;;;5051128;28;20673;-81
2021/01/14 12:57:05;;;;;;;7.70;6.90;;;2.80;96.60;;;;;;5050034;28;21166;-81
2021/01/14 12:59:33;;;;;;;12.50;11.30;;;2.90;96.90;;;;;;5051012;28;20580;-82
2021/01/14 13:01:59;;;;;;;7.07;6.05;;;2.80;96.80;;;;;;5050684;28;20215;-81
2021/01/14 13:04:26;;;;;;;6.85;6.05;;;2.60;96.20;;;;;;5050713;28;20223;-81
2021/01/14 13:06:52;;;;;;;6.85;5.03;;;2.50;96.80;;;;;;5048810;28;20196;-81
2021/01/14 13:09:19;;;;;;;8.25;4.90;;;2.60;97.50;;;;;;5051282;28;20692;-81
2021/01/14 13:11:46;;;;;;;6.25;4.32;;;2.70;97.60;;;;;;5050677;28;20200;-81
2021/01/14 13:14:12;;;;;;;6.85;4.65;;;2.70;97.00;;;;;;5050752;28;20218;-81
2021/01/14 13:16:41;;;;;;;8.15;5.35;;;2.50;96.40;;;;;;5060621;28;20244;-81
2021/01/14 13:19:09;;;;;;;7.57;5.65;;;2.60;97.00;;;;;;5063710;28;20248;-81
2021/01/14 13:21:37;;;;;;;12.73;6.95;;;2.70;97.00;;;;;;5059646;28;20207;-81
2021/01/14 13:24:05;;;;;;;6.18;5.50;;;2.70;96.30;;;;;;5057951;28;20797;-82
2021/01/14 13:26:32;;;;;;;6.80;5.70;;;2.70;96.00;;;;;;5058983;28;20203;-81
2021/01/14 13:28:59;;;;;;;8.75;5.28;;;3.00;96.00;;;;;;5060469;28;20203;-81
2021/01/14 13:31:26;;;;;;;7.82;6.07;;;2.90;95.20;;;;;;5059168;28;20195;-81
2021/01/14 13:33:53;;;;;;;9.30;4.68;;;2.90;95.70;;;;;;5050078;28;20215;-81
2021/01/14 13:36:20;;;;;;;7.13;5.50;;;3.00;95.20;;;;;;5050730;28;20224;-81
2021/01/14 13:38:47;;;;;;;9.77;5.35;;;3.00;95.40;;;;;;5050115;28;20207;-81
2021/01/14 13:41:13;;;;;;;7.60;5.90;;;3.20;95.60;;;;;;5051209;28;20207;-81
2021/01/14 13:43:40;;;;;;;5.35;4.72;;;3.40;96.00;;;;;;5050291;28;20726;-82